Date,TemperatureHighF,TemperatureAvgF,TemperatureLowF,DewpointHighF,DewpointAvgF,DewpointLowF,HumidityHigh,HumidityAvg,HumidityLow,PressureMaxIn,PressureMinIn,WindSpeedMaxMPH,WindSpeedAvgMPH,GustSpeedMaxMPH,PrecipitationSumIn
2013-1-1,30,27,26,24,19,16,90,73,57,30.61,30.49,0,0,0,0.00
2013-1-2,29,27,26,21,20,18,79,73,68,30.61,30.46,0,0,0,0.00
2013-1-3,30,27,25,19,16,13,77,65,53,30.46,30.35,0,0,0,0.00
2013-1-4,34,27,24,22,18,14,84,71,50,30.43,30.35,0,0,0,0.00
2013-1-5,29,27,26,27,24,20,94,86,76,30.40,30.26,0,0,0,0.00
2013-1-6,35,30,24,30,26,22,96,88,68,30.26,30.08,0,0,0,0.00
2013-1-7,51,41,32,43,36,30,98,82,55,30.11,29.93,0,0,0,0.08
2013-1-8,46,42,40,45,40,35,98,91,66,30.17,29.90,0,0,0,0.08
2013-1-9,44,39,33,42,35,30,98,88,68,29.93,29.70,0,0,0,0.08
2013-1-10,37,36,32,32,26,20,95,68,56,30.02,29.93,0,0,0,0.00
2013-1-11,34,31,24,25,20,15,79,65,54,30.29,30.02,0,0,0,0.00
2013-1-12,26,24,20,24,20,16,91,86,64,30.37,30.29,0,0,0,0.00
2013-1-13,26,22,18,21,18,15,92,84,75,30.46,30.37,0,0,0,0.00
2013-1-14,38,28,19,29,22,16,97,78,56,30.46,30.35,0,0,0,0.00
2013-1-15,42,34,31,33,30,27,98,88,60,30.61,30.46,5,0,6,0.00
2013-1-16,34,32,28,34,30,27,98,95,89,30.58,30.52,8,2,9,0.00
2013-1-17,29,28,27,27,25,23,95,89,82,30.58,30.43,6,1,9,0.00
2013-1-18,38,29,26,25,23,20,89,78,55,30.43,30.29,5,0,6,0.00
2013-1-19,30,28,26,27,26,23,97,91,83,30.49,30.32,9,2,9,0.00
2013-1-20,28,26,25,25,24,23,96,92,87,30.55,30.43,10,3,14,0.00
2013-1-21,27,26,25,24,23,21,92,87,78,30.46,30.35,8,2,9,0.00
2013-1-22,26,25,24,22,21,20,89,85,78,30.35,30.20,10,3,12,0.00
2013-1-23,30,26,24,27,21,18,95,81,64,30.20,30.02,10,2,12,0.00
2013-1-24,37,31,27,35,30,26,98,94,79,30.26,30.17,4,0,6,0.04
2013-1-25,38,35,32,38,34,32,98,98,97,30.17,29.96,5,0,6,0.08
2013-1-26,41,36,34,40,35,32,98,94,78,30.05,29.96,10,2,13,0.00
2013-1-27,41,37,34,34,32,28,98,84,63,30.11,30.02,15,6,20,0.00
2013-1-28,43,39,34,37,33,27,96,80,55,30.08,29.99,30,10,32,0.16
2013-1-29,46,44,40,37,35,32,78,71,63,30.35,30.02,27,13,33,0.00
2013-1-30,50,45,42,44,39,35,96,79,64,30.37,30.32,17,7,23,0.00
2013-1-31,50,47,43,41,36,31,91,67,48,30.37,30.29,20,8,23,0.00